createdAt,value
2018-09-26T00:01:22.964Z,21.36
2018-09-26T00:03:48.924Z,21.36
2018-09-26T00:06:14.867Z,21.35
2018-09-26T00:08:40.817Z,21.34
2018-09-26T00:11:06.784Z,21.34
2018-09-26T00:13:32.724Z,21.35
2018-09-26T00:15:58.820Z,21.35
2018-09-26T00:18:24.768Z,21.36
2018-09-26T00:20:50.729Z,21.32
2018-09-26T00:23:16.674Z,21.31
2018-09-26T00:25:42.644Z,21.31
2018-09-26T00:28:08.595Z,21.30
2018-09-26T00:30:34.539Z,21.31
2018-09-26T00:33:00.492Z,21.29
2018-09-26T00:35:26.435Z,21.31
2018-09-26T00:37:52.400Z,21.32
2018-09-26T00:40:18.379Z,21.33
2018-09-26T00:42:44.323Z,21.33
2018-09-26T00:45:10.373Z,21.31
2018-09-26T00:47:36.310Z,21.30
2018-09-26T00:50:02.267Z,21.30
2018-09-26T00:52:28.277Z,21.31
2018-09-26T00:54:54.247Z,21.32
2018-09-26T00:57:20.199Z,21.28
2018-09-26T00:59:46.147Z,21.29
2018-09-26T01:02:12.092Z,21.28
2018-09-26T01:04:38.052Z,21.28
2018-09-26T01:07:04.000Z,21.28
2018-09-26T01:09:29.990Z,21.27
2018-09-26T01:11:55.908Z,21.27
2018-09-26T01:14:21.854Z,21.28
2018-09-26T01:16:47.820Z,21.26
2018-09-26T01:19:13.800Z,21.26
2018-09-26T01:21:39.740Z,21.26
2018-09-26T01:24:05.708Z,21.25
2018-09-26T01:26:31.662Z,21.25
2018-09-26T01:28:57.690Z,21.26
2018-09-26T01:31:23.643Z,21.27
2018-09-26T01:33:49.613Z,21.27
2018-09-26T01:36:15.560Z,21.27
2018-09-26T01:38:41.512Z,21.26
2018-09-26T01:41:07.460Z,21.25
2018-09-26T01:43:33.420Z,21.24
2018-09-26T01:45:59.356Z,21.24
2018-09-26T01:48:25.335Z,21.23
2018-09-26T01:50:51.334Z,21.24
2018-09-26T01:53:17.280Z,21.24
2018-09-26T01:55:43.295Z,21.25
2018-09-26T01:58:09.235Z,21.22
2018-09-26T02:00:35.208Z,21.23
2018-09-26T02:03:01.162Z,21.23
2018-09-26T02:05:27.125Z,21.23
2018-09-26T02:07:53.093Z,21.22
2018-09-26T02:10:19.055Z,21.23
2018-09-26T02:12:45.009Z,21.22
2018-09-26T02:15:10.993Z,21.22
2018-09-26T02:17:36.942Z,21.24
2018-09-26T02:20:02.890Z,21.24
2018-09-26T02:22:28.843Z,21.22
2018-09-26T02:24:54.885Z,21.22
2018-09-26T02:27:20.849Z,21.22
2018-09-26T02:29:46.829Z,21.21
2018-09-26T02:32:12.804Z,21.20
2018-09-26T02:34:38.748Z,21.18
2018-09-26T02:37:04.717Z,21.18
2018-09-26T02:39:30.672Z,21.18
2018-09-26T02:41:56.640Z,21.18
2018-09-26T02:44:22.583Z,21.16
2018-09-26T02:46:48.640Z,21.16
2018-09-26T02:49:14.587Z,21.17
2018-09-26T02:51:40.523Z,21.17
2018-09-26T02:54:06.617Z,21.16
2018-09-26T02:56:32.562Z,21.17
2018-09-26T02:58:58.535Z,21.17
2018-09-26T03:01:24.522Z,21.13
2018-09-26T03:03:50.476Z,21.15
2018-09-26T03:06:16.416Z,21.15
2018-09-26T03:08:42.564Z,21.17
2018-09-26T03:11:08.621Z,21.15
2018-09-26T03:13:34.571Z,21.16
2018-09-26T03:16:00.525Z,21.14
2018-09-26T03:18:26.470Z,21.13
2018-09-26T03:20:52.473Z,21.13
2018-09-26T03:23:18.427Z,21.14
2018-09-26T03:25:44.491Z,21.12
2018-09-26T03:28:10.435Z,21.12
2018-09-26T03:30:36.399Z,21.12
2018-09-26T03:33:02.339Z,21.12
2018-09-26T03:35:28.292Z,21.11
2018-09-26T03:37:54.247Z,21.11
2018-09-26T03:40:20.202Z,21.11
2018-09-26T03:42:46.168Z,21.11
2018-09-26T03:45:12.116Z,21.12
2018-09-26T03:47:38.061Z,21.12
2018-09-26T03:50:04.097Z,21.12
2018-09-26T03:52:30.046Z,21.12
2018-09-26T03:54:55.980Z,21.13
2018-09-26T03:57:21.937Z,21.12
2018-09-26T03:59:47.876Z,21.10
2018-09-26T04:02:13.816Z,21.10
2018-09-26T04:04:39.769Z,21.11
2018-09-26T04:07:05.794Z,21.12
2018-09-26T04:09:31.827Z,21.10
2018-09-26T04:11:57.784Z,21.14
2018-09-26T04:14:23.726Z,21.11
2018-09-26T04:16:49.673Z,21.11
2018-09-26T04:19:15.683Z,21.10
2018-09-26T04:21:41.581Z,21.09
2018-09-26T04:24:07.543Z,21.09
2018-09-26T04:26:33.609Z,21.09
2018-09-26T04:28:59.472Z,21.09
2018-09-26T04:31:25.483Z,21.12
2018-09-26T04:33:51.576Z,21.12
2018-09-26T04:36:17.623Z,21.11
2018-09-26T04:38:43.680Z,21.10
2018-09-26T04:41:09.535Z,21.13
2018-09-26T04:43:35.520Z,21.14
2018-09-26T04:46:01.472Z,21.13
2018-09-26T04:48:27.424Z,21.10
2018-09-26T04:50:53.460Z,21.13
2018-09-26T04:53:19.357Z,21.11
2018-09-26T04:55:45.304Z,21.11
2018-09-26T04:58:11.530Z,21.11
2018-09-26T05:00:37.647Z,21.10
2018-09-26T05:03:03.592Z,21.08
2018-09-26T05:05:29.564Z,21.10
2018-09-26T05:07:55.599Z,21.09
2018-09-26T05:10:21.543Z,21.09
2018-09-26T05:12:47.492Z,21.09
2018-09-26T05:15:13.504Z,21.10
2018-09-26T05:17:39.451Z,21.10
2018-09-26T05:20:05.406Z,21.09
2018-09-26T05:22:31.367Z,21.08
2018-09-26T05:24:57.314Z,21.08
2018-09-26T05:27:23.328Z,21.10
2018-09-26T05:29:49.320Z,21.09
2018-09-26T05:32:15.339Z,21.07
2018-09-26T05:34:41.288Z,21.08
2018-09-26T05:37:07.243Z,21.09
2018-09-26T05:39:33.270Z,21.08
2018-09-26T05:41:59.220Z,21.07
2018-09-26T05:44:25.193Z,21.06
2018-09-26T05:46:51.159Z,21.06
2018-09-26T05:49:17.101Z,21.07
2018-09-26T05:51:43.055Z,21.07
2018-09-26T05:54:08.996Z,21.06
2018-09-26T05:56:34.935Z,21.06
2018-09-26T05:59:00.951Z,21.04
2018-09-26T06:01:26.888Z,21.06
2018-09-26T06:03:52.876Z,21.06
2018-09-26T06:06:18.819Z,21.05
2018-09-26T06:08:44.799Z,21.05
2018-09-26T06:11:10.840Z,21.06
2018-09-26T06:13:36.806Z,21.10
2018-09-26T06:16:02.765Z,21.07
2018-09-26T06:18:28.713Z,21.06
2018-09-26T06:20:54.663Z,21.04
2018-09-26T06:23:20.633Z,21.05
2018-09-26T06:25:46.571Z,21.08
2018-09-26T06:28:12.526Z,21.07
2018-09-26T06:30:38.483Z,21.04
2018-09-26T06:33:04.436Z,21.05
2018-09-26T06:35:30.408Z,21.04
2018-09-26T06:37:56.425Z,21.05
2018-09-26T06:40:22.462Z,21.05
2018-09-26T06:42:48.347Z,21.04
2018-09-26T06:45:14.324Z,21.06
2018-09-26T06:47:40.276Z,21.06
2018-09-26T06:50:06.296Z,21.04
2018-09-26T06:52:32.259Z,21.07
2018-09-26T06:54:58.199Z,21.08
2018-09-26T06:57:24.182Z,21.09
2018-09-26T06:59:50.143Z,21.10
2018-09-26T07:02:16.098Z,21.09
2018-09-26T07:04:42.039Z,21.08
2018-09-26T07:07:07.981Z,21.07
2018-09-26T07:09:33.933Z,21.08
2018-09-26T07:11:59.899Z,21.09
2018-09-26T07:14:25.831Z,21.08
2018-09-26T07:16:51.784Z,21.09
2018-09-26T07:19:17.727Z,21.08
2018-09-26T07:21:43.674Z,21.07
2018-09-26T07:24:09.631Z,21.08
2018-09-26T07:26:35.619Z,21.06
2018-09-26T07:29:01.596Z,21.08
2018-09-26T07:31:27.691Z,21.07
2018-09-26T07:33:53.589Z,21.07
2018-09-26T07:36:19.543Z,21.06
2018-09-26T07:38:45.484Z,21.08
2018-09-26T07:41:11.701Z,21.12
2018-09-26T07:43:37.779Z,21.11
2018-09-26T07:46:03.811Z,21.12
2018-09-26T07:48:30.461Z,21.12
2018-09-26T07:50:56.419Z,21.08
2018-09-26T07:53:22.372Z,21.09
2018-09-26T07:55:48.374Z,21.09
2018-09-26T07:58:14.374Z,21.09
2018-09-26T08:00:40.332Z,21.08
2018-09-26T08:03:06.275Z,21.08
2018-09-26T08:05:32.267Z,21.08
2018-09-26T08:07:58.204Z,21.10
2018-09-26T08:10:24.165Z,21.10
2018-09-26T08:12:50.111Z,21.10
2018-09-26T08:15:16.072Z,21.10
2018-09-26T08:17:42.087Z,21.11
2018-09-26T08:20:08.030Z,21.09
2018-09-26T08:22:33.988Z,21.10
2018-09-26T08:24:59.932Z,21.09
2018-09-26T08:27:25.888Z,21.10
2018-09-26T08:29:51.898Z,21.10
2018-09-26T08:32:17.787Z,21.10
2018-09-26T08:34:43.731Z,21.08
2018-09-26T08:37:09.728Z,21.10
2018-09-26T08:39:35.797Z,21.08
2018-09-26T08:42:01.744Z,21.08
2018-09-26T08:44:27.691Z,21.09
2018-09-26T08:46:53.643Z,21.09
2018-09-26T08:49:19.643Z,21.09
2018-09-26T08:51:45.613Z,21.10
2018-09-26T08:54:11.571Z,21.07
2018-09-26T08:56:37.532Z,21.08
2018-09-26T08:59:03.491Z,21.09
2018-09-26T09:01:29.433Z,21.08
2018-09-26T09:03:55.408Z,21.09
2018-09-26T09:06:21.506Z,21.08
2018-09-26T09:08:47.373Z,21.08
2018-09-26T09:11:13.330Z,21.07
2018-09-26T09:13:39.279Z,21.08
2018-09-26T09:16:05.308Z,21.09
2018-09-26T09:18:31.288Z,21.08
2018-09-26T09:20:57.271Z,21.10
2018-09-26T09:23:23.208Z,21.09
2018-09-26T09:25:49.176Z,21.09
2018-09-26T09:28:15.121Z,21.09
2018-09-26T09:30:41.177Z,21.10
2018-09-26T09:33:07.132Z,21.10
2018-09-26T09:35:33.073Z,21.10
2018-09-26T09:37:59.379Z,21.12
2018-09-26T09:40:25.332Z,21.11
2018-09-26T09:42:51.279Z,21.13
2018-09-26T09:45:17.231Z,21.11
2018-09-26T09:47:43.180Z,21.11
2018-09-26T09:50:09.164Z,21.11
2018-09-26T09:52:35.083Z,21.13
2018-09-26T09:55:01.152Z,21.15
2018-09-26T09:57:27.118Z,21.15
2018-09-26T09:59:53.084Z,21.16
2018-09-26T10:02:19.133Z,21.15
2018-09-26T10:04:45.003Z,21.16
2018-09-26T10:07:10.943Z,21.16
2018-09-26T10:09:36.896Z,21.16
2018-09-26T10:12:02.852Z,21.15
2018-09-26T10:14:29.214Z,21.14
2018-09-26T10:16:55.083Z,21.15
2018-09-26T10:19:21.143Z,21.13
2018-09-26T10:21:47.092Z,21.15
2018-09-26T10:24:13.043Z,21.14
2018-09-26T10:26:39.129Z,21.13
2018-09-26T10:29:05.091Z,21.15
2018-09-26T10:31:31.043Z,21.15
2018-09-26T10:33:57.013Z,21.16
2018-09-26T10:36:22.964Z,21.15
2018-09-26T10:38:48.936Z,21.17
2018-09-26T10:41:14.899Z,21.16
2018-09-26T10:43:40.857Z,21.19
2018-09-26T10:46:06.823Z,21.19
2018-09-26T10:48:32.773Z,21.18
2018-09-26T10:50:58.740Z,21.18
2018-09-26T10:53:24.680Z,21.18
2018-09-26T10:55:50.675Z,21.17
2018-09-26T10:58:16.617Z,21.17
2018-09-26T11:00:42.830Z,21.17
2018-09-26T11:03:08.768Z,21.18
2018-09-26T11:05:34.816Z,21.17
2018-09-26T11:08:00.761Z,21.17
2018-09-26T11:10:26.787Z,21.16
2018-09-26T11:12:52.681Z,21.19
2018-09-26T11:15:18.699Z,21.22
2018-09-26T11:17:44.581Z,21.18
2018-09-26T11:20:10.533Z,21.18
2018-09-26T11:22:36.500Z,21.20
2018-09-26T11:25:02.467Z,21.19
2018-09-26T11:27:28.420Z,21.19
2018-09-26T11:29:54.377Z,21.19
2018-09-26T11:32:20.471Z,21.22
2018-09-26T11:34:46.370Z,21.22
2018-09-26T11:37:12.388Z,21.23
2018-09-26T11:39:38.326Z,21.23
2018-09-26T11:42:04.266Z,21.22
2018-09-26T11:44:30.226Z,21.23
2018-09-26T11:46:56.184Z,21.22
2018-09-26T11:49:22.132Z,21.23
2018-09-26T11:51:48.080Z,21.22
2018-09-26T11:54:14.071Z,21.22
2018-09-26T11:56:40.101Z,21.23
2018-09-26T11:59:06.054Z,21.23
2018-09-26T12:01:32.010Z,21.23
2018-09-26T12:03:57.952Z,21.22
2018-09-26T12:06:24.016Z,21.22
2018-09-26T12:08:49.877Z,21.23
2018-09-26T12:11:15.873Z,21.27
2018-09-26T12:13:41.909Z,21.24
2018-09-26T12:16:07.969Z,21.24
2018-09-26T12:18:33.919Z,21.23
2018-09-26T12:20:59.930Z,21.23
2018-09-26T12:23:25.979Z,21.25
2018-09-26T12:25:51.944Z,21.26
2018-09-26T12:28:18.011Z,21.24
2018-09-26T12:30:43.928Z,21.26
2018-09-26T12:33:09.879Z,21.27
2018-09-26T12:35:35.946Z,21.25
2018-09-26T12:38:01.900Z,21.23
2018-09-26T12:40:27.875Z,21.25
2018-09-26T12:42:53.850Z,21.24
2018-09-26T12:45:19.782Z,21.26
2018-09-26T12:47:45.727Z,21.26
2018-09-26T12:50:11.691Z,21.24
2018-09-26T12:52:37.650Z,21.26
2018-09-26T12:55:03.617Z,21.24
2018-09-26T12:57:29.587Z,21.25
2018-09-26T12:59:55.572Z,21.25
2018-09-26T13:02:21.668Z,21.26
2018-09-26T13:04:47.571Z,21.27
2018-09-26T13:07:13.523Z,21.27
2018-09-26T13:09:39.471Z,21.27
2018-09-26T13:12:05.452Z,21.26
2018-09-26T13:14:31.379Z,21.29
2018-09-26T13:16:57.579Z,21.28
2018-09-26T13:19:23.727Z,21.32
2018-09-26T13:21:49.672Z,21.33
2018-09-26T13:24:15.755Z,21.31
2018-09-26T13:26:41.648Z,21.30
2018-09-26T13:29:07.620Z,21.29
2018-09-26T13:31:33.611Z,21.30
2018-09-26T13:33:59.672Z,21.27
2018-09-26T13:36:25.710Z,21.29
2018-09-26T13:38:51.706Z,21.29
2018-09-26T13:41:17.719Z,21.30
2018-09-26T13:43:43.808Z,21.30
2018-09-26T13:46:09.858Z,21.30
2018-09-26T13:48:35.747Z,21.31
2018-09-26T13:51:01.957Z,21.29
2018-09-26T13:53:27.886Z,21.30
2018-09-26T13:55:53.845Z,21.32
2018-09-26T13:58:19.886Z,21.31
2018-09-26T14:00:45.850Z,21.34
2018-09-26T14:03:11.807Z,21.33
2018-09-26T14:05:37.759Z,21.34
2018-09-26T14:08:04.032Z,21.34
2018-09-26T14:10:30.126Z,21.36
2018-09-26T14:12:56.068Z,21.35
2018-09-26T14:15:22.040Z,21.33
2018-09-26T14:17:48.051Z,21.34
2018-09-26T14:20:14.030Z,21.35
2018-09-26T14:22:40.047Z,21.35
2018-09-26T14:25:06.057Z,21.35
2018-09-26T14:27:32.125Z,21.36
2018-09-26T14:29:58.096Z,21.37
2018-09-26T14:32:24.268Z,21.38
2018-09-26T14:34:50.067Z,21.36
2018-09-26T14:37:16.011Z,21.36
2018-09-26T14:39:42.070Z,21.37
2018-09-26T14:42:07.983Z,21.41
2018-09-26T14:44:33.935Z,21.42
2018-09-26T14:46:59.915Z,21.42
2018-09-26T14:49:25.931Z,21.42
2018-09-26T14:51:51.856Z,21.42
2018-09-26T14:54:17.827Z,21.42
2018-09-26T14:56:43.757Z,21.41
2018-09-26T14:59:09.712Z,21.39
2018-09-26T15:01:35.692Z,21.40
2018-09-26T15:04:01.685Z,21.39
2018-09-26T15:06:27.578Z,21.39
2018-09-26T15:08:53.745Z,21.40
2018-09-26T15:11:19.718Z,21.39
2018-09-26T15:13:45.683Z,21.38
2018-09-26T15:16:11.715Z,21.38
2018-09-26T15:18:37.620Z,21.38
2018-09-26T15:21:03.573Z,21.39
2018-09-26T15:23:29.527Z,21.40
2018-09-26T15:25:55.542Z,21.42
2018-09-26T15:28:21.495Z,21.45
2018-09-26T15:30:47.448Z,21.44
2018-09-26T15:33:13.464Z,21.45
2018-09-26T15:35:39.401Z,21.44
2018-09-26T15:38:05.397Z,21.43
2018-09-26T15:40:31.445Z,21.42
2018-09-26T15:42:57.367Z,21.42
2018-09-26T15:45:23.329Z,21.40
2018-09-26T15:47:49.279Z,21.38
2018-09-26T15:50:15.445Z,21.39
2018-09-26T15:52:41.315Z,21.40
2018-09-26T15:55:07.278Z,21.39
2018-09-26T15:57:33.227Z,21.39
2018-09-26T15:59:59.173Z,21.39
2018-09-26T16:02:25.208Z,21.40
2018-09-26T16:04:51.098Z,21.39
2018-09-26T16:07:17.059Z,21.39
2018-09-26T16:09:43.008Z,21.39
2018-09-26T16:12:09.024Z,21.41
2018-09-26T16:14:34.980Z,21.41
2018-09-26T16:17:01.022Z,21.43
2018-09-26T16:19:27.092Z,21.44
2018-09-26T16:21:53.026Z,21.44
2018-09-26T16:24:19.082Z,21.43
2018-09-26T16:26:44.961Z,21.40
2018-09-26T16:29:10.923Z,21.41
2018-09-26T16:31:36.867Z,21.40
2018-09-26T16:34:02.799Z,21.40
2018-09-26T16:36:28.845Z,21.40
2018-09-26T16:38:54.823Z,21.40
2018-09-26T16:41:20.790Z,21.38
2018-09-26T16:43:46.760Z,21.38
2018-09-26T16:46:12.757Z,21.41
2018-09-26T16:48:38.724Z,21.43
2018-09-26T16:51:04.688Z,21.40
2018-09-26T16:53:30.758Z,21.40
2018-09-26T16:55:56.704Z,21.39
2018-09-26T16:58:22.723Z,21.40
2018-09-26T17:00:48.615Z,21.42
2018-09-26T17:03:14.592Z,21.43
2018-09-26T17:05:40.553Z,21.43
2018-09-26T17:08:06.572Z,21.43
2018-09-26T17:10:32.488Z,21.42
2018-09-26T17:12:58.464Z,21.41
2018-09-26T17:15:25.542Z,21.40
2018-09-26T17:17:51.556Z,21.40
2018-09-26T17:20:17.543Z,21.39
2018-09-26T17:22:43.488Z,21.39
2018-09-26T17:25:09.529Z,21.40
2018-09-26T17:27:35.481Z,21.38
2018-09-26T17:30:01.432Z,21.42
2018-09-26T17:32:27.385Z,21.43
2018-09-26T17:34:53.467Z,21.44
2018-09-26T17:37:19.415Z,21.44
2018-09-26T17:39:45.341Z,21.42
2018-09-26T17:42:11.314Z,21.41
2018-09-26T17:44:37.252Z,21.44
2018-09-26T17:47:03.216Z,21.45
2018-09-26T17:49:29.177Z,21.48
2018-09-26T17:51:55.231Z,21.50
2018-09-26T17:54:21.225Z,21.49
2018-09-26T17:56:47.163Z,21.43
2018-09-26T17:59:13.124Z,21.43
2018-09-26T18:01:39.072Z,21.43
2018-09-26T18:04:05.069Z,21.43
2018-09-26T18:06:31.031Z,21.44
2018-09-26T18:08:57.034Z,21.42
2018-09-26T18:11:22.956Z,21.45
2018-09-26T18:13:48.915Z,21.48
2018-09-26T18:16:14.904Z,21.49
2018-09-26T18:18:40.859Z,21.53
2018-09-26T18:21:06.816Z,21.49
2018-09-26T18:23:32.764Z,21.50
2018-09-26T18:25:58.727Z,21.46
2018-09-26T18:28:24.675Z,21.44
2018-09-26T18:30:50.652Z,21.43
2018-09-26T18:33:16.633Z,21.43
2018-09-26T18:35:42.589Z,21.43
2018-09-26T18:38:08.549Z,21.43
2018-09-26T18:40:34.582Z,21.42
2018-09-26T18:43:00.628Z,21.42
2018-09-26T18:45:26.703Z,21.44
2018-09-26T18:47:52.672Z,21.43
2018-09-26T18:50:18.618Z,21.42
2018-09-26T18:52:44.620Z,21.42
2018-09-26T18:55:10.564Z,21.43
2018-09-26T18:57:36.525Z,21.43
2018-09-26T19:00:02.485Z,21.44
2018-09-26T19:02:28.502Z,21.43
2018-09-26T19:04:54.566Z,21.44
2018-09-26T19:07:20.420Z,21.42
2018-09-26T19:09:46.363Z,21.43
2018-09-26T19:12:12.372Z,21.44
2018-09-26T19:14:38.293Z,21.43
2018-09-26T19:17:04.309Z,21.45
2018-09-26T19:19:30.256Z,21.46
2018-09-26T19:21:56.292Z,21.44
2018-09-26T19:24:22.252Z,21.45
2018-09-26T19:26:48.207Z,21.43
2018-09-26T19:29:14.156Z,21.44
2018-09-26T19:31:40.117Z,21.46
2018-09-26T19:34:06.081Z,21.44
2018-09-26T19:36:32.146Z,21.43
2018-09-26T19:38:58.139Z,21.43
2018-09-26T19:41:24.095Z,21.43
2018-09-26T19:43:50.136Z,21.42
2018-09-26T19:46:16.045Z,21.43
2018-09-26T19:48:42.008Z,21.43
2018-09-26T19:51:08.069Z,21.42
2018-09-26T19:53:33.963Z,21.43
2018-09-26T19:56:00.023Z,21.44
2018-09-26T19:58:26.059Z,21.44
2018-09-26T20:00:51.946Z,21.43
2018-09-26T20:03:17.898Z,21.43
2018-09-26T20:05:43.840Z,21.45
2018-09-26T20:08:10.460Z,21.43
2018-09-26T20:10:36.360Z,21.46
2018-09-26T20:13:02.362Z,21.47
2018-09-26T20:15:28.444Z,21.45
2018-09-26T20:17:54.393Z,21.45
2018-09-26T20:20:20.347Z,21.45
2018-09-26T20:22:46.319Z,21.44
2018-09-26T20:25:12.327Z,21.44
2018-09-26T20:27:38.559Z,21.44
2018-09-26T20:30:04.790Z,21.44
2018-09-26T20:32:30.771Z,21.43
2018-09-26T20:34:56.719Z,21.42
2018-09-26T20:37:22.753Z,21.41
2018-09-26T20:39:48.690Z,21.42
2018-09-26T20:42:14.640Z,21.42
2018-09-26T20:44:40.639Z,21.42
2018-09-26T20:47:06.595Z,21.43
2018-09-26T20:49:32.577Z,21.43
2018-09-26T20:51:58.603Z,21.44
2018-09-26T20:54:24.485Z,21.43
2018-09-26T20:56:50.435Z,21.43
2018-09-26T20:59:16.422Z,21.42
2018-09-26T21:01:42.380Z,21.41
2018-09-26T21:04:08.318Z,21.43
2018-09-26T21:06:34.290Z,21.43
2018-09-26T21:09:00.239Z,21.42
2018-09-26T21:11:26.209Z,21.42
2018-09-26T21:13:52.198Z,21.42
2018-09-26T21:16:18.248Z,21.43
2018-09-26T21:18:44.192Z,21.40
2018-09-26T21:21:10.163Z,21.42
2018-09-26T21:23:36.092Z,21.42
2018-09-26T21:26:02.068Z,21.42
2018-09-26T21:28:28.032Z,21.41
2018-09-26T21:30:54.015Z,21.40
2018-09-26T21:33:19.964Z,21.42
2018-09-26T21:35:45.921Z,21.40
2018-09-26T21:38:11.875Z,21.40
2018-09-26T21:40:37.831Z,21.40
2018-09-26T21:43:03.791Z,21.39
2018-09-26T21:45:29.747Z,21.38
2018-09-26T21:47:55.748Z,21.38
2018-09-26T21:50:21.707Z,21.35
2018-09-26T21:52:47.662Z,21.36
2018-09-26T21:55:13.604Z,21.37
2018-09-26T21:57:39.675Z,21.35
2018-09-26T22:00:05.759Z,21.37
2018-09-26T22:02:31.715Z,21.35
2018-09-26T22:04:57.674Z,21.35
2018-09-26T22:07:23.642Z,21.33
2018-09-26T22:09:49.591Z,21.34
2018-09-26T22:12:15.634Z,21.35
2018-09-26T22:14:41.635Z,21.34
2018-09-26T22:17:07.697Z,21.35
2018-09-26T22:19:33.641Z,21.35
2018-09-26T22:21:59.600Z,21.34
2018-09-26T22:24:25.545Z,21.33
2018-09-26T22:26:51.597Z,21.31
2018-09-26T22:29:17.577Z,21.30
2018-09-26T22:31:43.538Z,21.34
2018-09-26T22:34:09.496Z,21.31
2018-09-26T22:36:35.479Z,21.33
2018-09-26T22:39:01.418Z,21.34
2018-09-26T22:41:27.376Z,21.35
2018-09-26T22:43:53.325Z,21.32
2018-09-26T22:46:19.275Z,21.32
2018-09-26T22:48:45.225Z,21.33
2018-09-26T22:51:11.310Z,21.33
2018-09-26T22:53:37.262Z,21.32
2018-09-26T22:56:03.224Z,21.31
2018-09-26T22:58:29.178Z,21.31
2018-09-26T23:00:55.127Z,21.31
2018-09-26T23:03:21.073Z,21.33
2018-09-26T23:05:47.233Z,21.32
2018-09-26T23:08:13.278Z,21.33
2018-09-26T23:10:39.225Z,21.33
2018-09-26T23:13:05.163Z,21.31
2018-09-26T23:15:31.133Z,21.30
2018-09-26T23:17:57.069Z,21.29
2018-09-26T23:20:23.112Z,21.29
2018-09-26T23:22:49.065Z,21.30
2018-09-26T23:25:15.021Z,21.31
2018-09-26T23:27:40.969Z,21.30
2018-09-26T23:30:06.925Z,21.32
2018-09-26T23:32:32.872Z,21.30
2018-09-26T23:34:58.843Z,21.31
2018-09-26T23:37:24.807Z,21.29
2018-09-26T23:39:50.772Z,21.30
2018-09-26T23:42:16.764Z,21.31
2018-09-26T23:44:42.707Z,21.30
2018-09-26T23:47:08.753Z,21.31
2018-09-26T23:49:34.752Z,21.29
2018-09-26T23:52:00.696Z,21.29
2018-09-26T23:54:26.649Z,21.30
2018-09-26T23:56:52.591Z,21.31
2018-09-26T23:59:18.536Z,21.29
